Time;durP1;ratioP1;P1;durP2;ratioP2;P2;SDS_P1;SDS_P2;PMS_P1;PMS_P2;Temp;Humidity;BMP_temperature;BMP_pressure;BME280_temperature;BME280_humidity;BME280_pressure;Samples;Min_cycle;Max_cycle;Signal;HPM_P1;HPM_P2
2021/10/07 00:00:20;;;;;;;6.38;4.70;;;;;;;12.29;100.00;100130.69;5073070;28;20192;-76
2021/10/07 00:02:46;;;;;;;10.15;6.20;;;;;;;12.29;100.00;100137.91;5072957;28;20200;-76
2021/10/07 00:05:13;;;;;;;11.23;5.95;;;;;;;12.26;100.00;100130.00;5073088;28;20272;-76
2021/10/07 00:07:40;;;;;;;9.55;5.80;;;;;;;12.20;100.00;100139.28;5073236;28;20218;-76
2021/10/07 00:10:08;;;;;;;8.63;6.25;;;;;;;12.24;100.00;100131.91;5072953;28;20701;-76
2021/10/07 00:12:34;;;;;;;9.13;6.30;;;;;;;12.40;100.00;100132.78;5072798;28;20191;-76
2021/10/07 00:15:04;;;;;;;8.18;5.28;;;;;;;12.39;100.00;100130.16;5073274;28;20196;-75
2021/10/07 00:17:30;;;;;;;6.25;5.65;;;;;;;12.31;100.00;100127.91;5073345;28;20535;-76
2021/10/07 00:19:57;;;;;;;8.02;5.78;;;;;;;12.07;100.00;100130.13;5075347;28;20190;-76
2021/10/07 00:22:24;;;;;;;8.88;6.10;;;;;;;12.07;100.00;100131.03;5076772;28;20209;-75
2021/10/07 00:24:50;;;;;;;9.80;6.13;;;;;;;11.96;100.00;100127.16;5077095;28;20206;-76
2021/10/07 00:27:17;;;;;;;9.60;6.47;;;;;;;11.76;100.00;100133.63;5076504;28;20635;-76
2021/10/07 00:29:45;;;;;;;10.00;6.18;;;;;;;11.50;100.00;100135.91;5075908;28;20232;-76
2021/10/07 00:32:15;;;;;;;8.60;6.03;;;;;;;11.67;100.00;100133.19;5076875;28;20661;-76
2021/10/07 00:34:54;;;;;;;7.05;6.35;;;;;;;11.76;100.00;100137.22;5076710;28;20230;-76
2021/10/07 00:37:25;;;;;;;8.35;6.50;;;;;;;11.51;100.00;100142.16;5074563;28;20181;-76
2021/10/07 00:39:51;;;;;;;8.75;6.50;;;;;;;11.71;100.00;100135.72;5077549;28;20207;-76
2021/10/07 00:42:19;;;;;;;8.73;6.47;;;;;;;11.57;100.00;100149.94;5075481;28;20271;-76
2021/10/07 00:44:46;;;;;;;8.52;6.15;;;;;;;11.65;100.00;100143.19;5076034;28;20526;-75
2021/10/07 00:47:16;;;;;;;11.60;6.05;;;;;;;11.72;100.00;100138.34;5072355;28;20275;-75
2021/10/07 00:49:43;;;;;;;8.15;6.10;;;;;;;11.77;100.00;100135.38;5056888;28;20205;-76
2021/10/07 00:52:12;;;;;;;11.45;6.78;;;;;;;11.72;100.00;100138.34;5072065;28;20195;-76
2021/10/07 00:54:39;;;;;;;9.48;5.75;;;;;;;11.70;100.00;100137.53;5077352;28;20215;-76
2021/10/07 00:57:08;;;;;;;8.55;7.35;;;;;;;11.69;100.00;100136.69;5065096;28;20194;-75
2021/10/07 00:59:35;;;;;;;7.60;5.53;;;;;;;11.70;100.00;100140.25;5075168;28;20200;-76
2021/10/07 01:02:04;;;;;;;9.65;6.15;;;;;;;11.87;100.00;100142.94;5074489;28;20185;-76
2021/10/07 01:04:33;;;;;;;7.20;6.15;;;;;;;11.70;100.00;100148.34;5076401;28;20189;-76
2021/10/07 01:07:00;;;;;;;7.80;5.90;;;;;;;11.65;100.00;100145.03;5072059;28;20193;-75
2021/10/07 01:09:28;;;;;;;7.85;5.88;;;;;;;11.83;100.00;100146.72;5056741;28;20204;-76
2021/10/07 01:11:56;;;;;;;9.65;7.00;;;;;;;11.99;100.00;100148.59;5056043;28;20223;-75
2021/10/07 01:14:42;;;;;;;8.05;6.10;;;;;;;11.95;100.00;100142.50;5056721;28;20196;-76
2021/10/07 01:17:09;;;;;;;9.00;5.97;;;;;;;11.92;100.00;100144.47;5062725;28;20242;-76
2021/10/07 01:19:39;;;;;;;9.15;6.18;;;;;;;11.91;100.00;100146.31;5076142;28;20205;-76
2021/10/07 01:22:05;;;;;;;12.30;6.30;;;;;;;11.78;100.00;100146.09;5074332;28;20188;-76
2021/10/07 01:24:32;;;;;;;8.32;6.28;;;;;;;11.72;100.00;100140.16;5075996;28;20272;-76
2021/10/07 01:26:59;;;;;;;8.10;6.80;;;;;;;11.56;100.00;100150.91;5061794;28;20208;-76
2021/10/07 01:29:25;;;;;;;11.07;6.22;;;;;;;11.52;100.00;100149.31;5055176;28;20241;-76
2021/10/07 01:31:52;;;;;;;8.48;7.00;;;;;;;11.57;100.00;100137.31;5057027;28;20292;-75
2021/10/07 01:34:22;;;;;;;7.90;5.95;;;;;;;11.64;100.00;100143.25;5056203;28;20260;-76
2021/10/07 01:36:50;;;;;;;8.50;6.65;;;;;;;11.57;100.00;100145.41;5057595;28;20181;-76
2021/10/07 01:39:17;;;;;;;9.90;6.70;;;;;;;11.35;100.00;100142.09;5060302;28;20218;-76
2021/10/07 01:41:43;;;;;;;9.65;7.30;;;;;;;11.30;100.00;100150.44;5056018;28;20192;-74
2021/10/07 01:44:10;;;;;;;15.35;6.40;;;;;;;11.44;100.00;100147.91;5060688;28;20209;-75
2021/10/07 01:46:36;;;;;;;8.65;7.00;;;;;;;11.46;100.00;100161.28;5057513;28;20196;-75
2021/10/07 01:49:04;;;;;;;13.27;7.07;;;;;;;11.59;100.00;100156.13;5074147;28;20204;-76
2021/10/07 01:51:30;;;;;;;9.75;7.63;;;;;;;11.56;100.00;100159.00;5073349;28;20667;-75
2021/10/07 01:53:58;;;;;;;10.43;7.10;;;;;;;11.53;100.00;100161.84;5054973;28;20196;-74
2021/10/07 01:56:25;;;;;;;9.07;7.78;;;;;;;11.69;100.00;100157.41;5058287;28;20208;-74
2021/10/07 01:58:51;;;;;;;9.05;7.13;;;;;;;11.79;100.00;100163.16;5073787;28;20653;-74
2021/10/07 02:01:18;;;;;;;11.65;7.03;;;;;;;11.67;100.00;100162.84;5063592;28;20189;-75
2021/10/07 02:03:45;;;;;;;9.60;7.95;;;;;;;11.80;100.00;100149.59;5067149;28;20553;-74
2021/10/07 02:06:12;;;;;;;9.23;7.45;;;;;;;11.82;100.00;100161.16;5054196;28;20541;-75
2021/10/07 02:08:39;;;;;;;10.35;7.20;;;;;;;11.65;100.00;100162.06;5054384;28;20194;-74
2021/10/07 02:11:07;;;;;;;10.82;7.97;;;;;;;11.49;100.00;100166.53;5067739;28;20205;-75
2021/10/07 02:13:34;;;;;;;12.25;8.25;;;;;;;11.76;100.00;100160.59;5053636;28;20212;-75
2021/10/07 02:16:00;;;;;;;10.80;8.07;;;;;;;11.46;100.00;100167.59;5054207;28;20515;-75
2021/10/07 02:18:27;;;;;;;14.70;8.40;;;;;;;11.39;100.00;100160.75;5053672;28;20193;-75
2021/10/07 02:20:54;;;;;;;9.75;7.82;;;;;;;11.36;100.00;100160.91;5065568;28;20192;-75
2021/10/07 02:23:22;;;;;;;14.68;8.20;;;;;;;11.39;100.00;100163.44;5062652;28;20193;-76
2021/10/07 02:25:49;;;;;;;14.43;9.18;;;;;;;11.31;100.00;100167.50;5054135;28;20215;-74
2021/10/07 02:28:16;;;;;;;13.07;7.57;;;;;;;11.41;100.00;100164.22;5054005;28;20205;-75
2021/10/07 02:30:44;;;;;;;10.80;7.97;;;;;;;11.50;100.00;100162.88;5071077;28;20665;-74
2021/10/07 02:33:11;;;;;;;10.52;7.43;;;;;;;11.22;100.00;100158.06;5072972;28;20639;-74
2021/10/07 02:35:38;;;;;;;9.68;7.40;;;;;;;11.23;100.00;100159.81;5065635;28;20201;-74
2021/10/07 02:38:05;;;;;;;9.27;7.40;;;;;;;11.26;100.00;100154.25;5061449;28;20525;-75
2021/10/07 02:40:34;;;;;;;14.68;7.80;;;;;;;11.17;100.00;100150.22;5072431;28;20495;-75
2021/10/07 02:43:00;;;;;;;13.02;7.80;;;;;;;11.09;100.00;100143.50;5072577;28;20597;-75
2021/10/07 02:45:28;;;;;;;10.00;7.60;;;;;;;11.25;100.00;100152.50;5071748;28;20276;-75
2021/10/07 02:47:55;;;;;;;10.45;7.80;;;;;;;11.30;100.00;100153.13;5072825;28;20203;-75
2021/10/07 02:50:23;;;;;;;11.85;7.28;;;;;;;11.35;100.00;100159.19;5071680;28;20203;-75
2021/10/07 02:52:50;;;;;;;9.95;7.13;;;;;;;11.46;100.00;100151.41;5072777;28;20200;-75
2021/10/07 02:55:17;;;;;;;11.35;7.53;;;;;;;11.55;100.00;100149.16;5067192;28;20193;-75
2021/10/07 02:57:45;;;;;;;10.15;7.65;;;;;;;11.46;100.00;100156.78;5053152;28;20730;-75
2021/10/07 03:00:13;;;;;;;11.32;7.55;;;;;;;11.62;100.00;100164.03;5064482;28;20185;-75
2021/10/07 03:02:41;;;;;;;12.48;7.07;;;;;;;11.33;100.00;100165.59;5072823;28;20204;-75
2021/10/07 03:05:08;;;;;;;13.95;8.30;;;;;;;11.38;100.00;100166.22;5072168;28;20272;-75
2021/10/07 03:07:35;;;;;;;11.70;7.78;;;;;;;11.48;100.00;100173.75;5071343;28;20189;-74
2021/10/07 03:10:02;;;;;;;9.23;7.53;;;;;;;11.53;100.00;100178.03;5069194;28;20203;-76
2021/10/07 03:12:29;;;;;;;14.27;8.02;;;;;;;11.46;100.00;100180.16;5063022;28;20202;-76
2021/10/07 03:14:55;;;;;;;12.65;8.30;;;;;;;11.41;100.00;100177.72;5053929;28;20193;-74
2021/10/07 03:17:22;;;;;;;13.20;9.82;;;;;;;11.46;100.00;100172.06;5053613;28;20204;-75
2021/10/07 03:19:50;;;;;;;10.45;8.13;;;;;;;11.42;100.00;100187.56;5053382;28;20193;-76
2021/10/07 03:22:16;;;;;;;11.25;7.18;;;;;;;11.45;100.00;100186.53;5069173;28;20527;-76
2021/10/07 03:24:43;;;;;;;10.57;7.80;;;;;;;11.36;100.00;100195.97;5073585;28;20200;-75
2021/10/07 03:27:10;;;;;;;10.25;7.85;;;;;;;11.21;100.00;100194.06;5056092;28;20212;-75
2021/10/07 03:29:37;;;;;;;11.52;8.20;;;;;;;11.06;100.00;100193.03;5062660;28;20224;-75
2021/10/07 03:32:05;;;;;;;12.48;8.68;;;;;;;11.19;100.00;100198.66;5056085;28;20304;-75
2021/10/07 03:34:31;;;;;;;10.55;8.07;;;;;;;11.20;100.00;100201.28;5069146;28;20197;-75
2021/10/07 03:36:59;;;;;;;13.40;8.15;;;;;;;11.10;100.00;100201.81;5070692;28;20196;-76
2021/10/07 03:39:26;;;;;;;9.02;7.78;;;;;;;11.11;100.00;100203.56;5056762;28;20201;-76
2021/10/07 03:41:52;;;;;;;11.57;8.10;;;;;;;11.11;100.00;100203.56;5070202;28;20189;-75
2021/10/07 03:44:19;;;;;;;11.20;8.20;;;;;;;11.25;100.00;100198.34;5062771;28;20193;-76
2021/10/07 03:46:46;;;;;;;10.02;8.43;;;;;;;11.31;100.00;100207.94;5053843;28;20200;-76
2021/10/07 03:49:12;;;;;;;11.65;9.25;;;;;;;11.38;100.00;100202.16;5054217;28;20193;-75
2021/10/07 03:51:39;;;;;;;10.82;8.77;;;;;;;11.45;100.00;100208.97;5058654;28;20201;-75
2021/10/07 03:54:07;;;;;;;14.93;9.70;;;;;;;11.52;100.00;100211.34;5058712;28;20199;-75
2021/10/07 03:56:34;;;;;;;12.55;9.20;;;;;;;11.58;100.00;100206.50;5058419;28;20192;-75
2021/10/07 03:59:00;;;;;;;15.27;8.20;;;;;;;11.89;100.00;100208.47;5057636;28;20201;-75
2021/10/07 04:01:27;;;;;;;11.30;7.70;;;;;;;12.01;100.00;100208.78;5068633;28;20641;-76
2021/10/07 04:03:54;;;;;;;8.73;6.88;;;;;;;11.85;100.00;100212.25;5074831;28;20196;-75
2021/10/07 04:06:21;;;;;;;15.93;7.90;;;;;;;11.70;100.00;100215.78;5067123;28;20200;-75
2021/10/07 04:08:47;;;;;;;10.43;8.02;;;;;;;11.96;100.00;100213.53;5060358;28;20287;-76
2021/10/07 04:11:15;;;;;;;11.90;8.07;;;;;;;11.81;100.00;100221.47;5075491;28;20212;-76
2021/10/07 04:13:42;;;;;;;13.30;9.10;;;;;;;11.74;100.00;100214.66;5058770;28;20646;-76
2021/10/07 04:16:09;;;;;;;10.77;8.20;;;;;;;11.90;100.00;100217.44;5066958;28;20646;-76
2021/10/07 04:18:35;;;;;;;11.95;8.65;;;;;;;11.70;100.00;100218.47;5076266;28;20200;-74
2021/10/07 04:21:02;;;;;;;11.77;9.25;;;;;;;11.66;100.00;100222.28;5077008;28;20195;-75
2021/10/07 04:23:29;;;;;;;12.02;8.20;;;;;;;11.60;100.00;100219.91;5070016;28;20197;-76
2021/10/07 04:25:55;;;;;;;14.48;8.07;;;;;;;11.84;100.00;100221.28;5062159;28;20208;-75
2021/10/07 04:28:23;;;;;;;12.70;9.10;;;;;;;12.02;100.00;100224.00;5058793;28;20229;-75
2021/10/07 04:30:50;;;;;;;8.93;7.72;;;;;;;11.89;100.00;100229.19;5064193;28;22206;-74
2021/10/07 04:33:16;;;;;;;17.08;8.90;;;;;;;11.62;100.00;100218.88;5076267;28;20292;-75
2021/10/07 04:35:43;;;;;;;9.75;7.70;;;;;;;11.66;100.00;100224.97;5065834;28;20201;-75
2021/10/07 04:38:10;;;;;;;11.15;8.35;;;;;;;11.81;100.00;100226.00;5077116;28;20200;-76
2021/10/07 04:40:37;;;;;;;10.85;9.15;;;;;;;11.73;100.00;100228.22;5063396;28;20589;-76
2021/10/07 04:43:04;;;;;;;10.57;7.47;;;;;;;11.80;100.00;100230.53;5069212;28;20193;-75
2021/10/07 04:45:32;;;;;;;8.48;7.18;;;;;;;11.98;100.00;100228.69;5072147;28;20364;-75
2021/10/07 04:47:59;;;;;;;9.30;7.60;;;;;;;12.06;100.00;100225.59;5065565;28;20200;-76
2021/10/07 04:50:25;;;;;;;8.57;6.97;;;;;;;12.04;100.00;100228.34;5072986;28;20552;-75
2021/10/07 04:52:52;;;;;;;19.77;7.85;;;;;;;11.94;100.00;100235.22;5070372;28;20213;-75
2021/10/07 04:55:18;;;;;;;9.57;7.57;;;;;;;11.83;100.00;100243.84;5055339;28;20190;-75
2021/10/07 04:57:45;;;;;;;15.65;8.63;;;;;;;11.83;100.00;100246.56;5055163;28;20193;-76
2021/10/07 05:00:12;;;;;;;13.30;8.27;;;;;;;11.75;100.00;100251.47;5065111;28;20193;-75
2021/10/07 05:02:41;;;;;;;11.05;7.80;;;;;;;11.93;100.00;100248.78;5073983;28;20199;-75
2021/10/07 05:05:10;;;;;;;12.05;9.07;;;;;;;12.04;100.00;100246.38;5064655;28;20204;-75
2021/10/07 05:07:38;;;;;;;9.50;8.10;;;;;;;11.99;100.00;100253.88;5072578;28;20207;-74
2021/10/07 05:10:09;;;;;;;11.05;8.93;;;;;;;11.74;100.00;100256.97;5074405;28;20184;-75
2021/10/07 05:12:35;;;;;;;10.20;9.02;;;;;;;11.81;100.00;100252.97;5073560;28;20224;-75
2021/10/07 05:15:02;;;;;;;11.38;8.90;;;;;;;12.01;100.00;100251.97;5074388;28;20222;-75
2021/10/07 05:17:29;;;;;;;18.20;12.00;;;;;;;12.07;100.00;100254.31;5054428;28;20553;-75
2021/10/07 05:19:57;;;;;;;11.95;9.07;;;;;;;11.99;100.00;100252.03;5054284;28;20197;-75
2021/10/07 05:22:24;;;;;;;11.80;8.40;;;;;;;11.79;100.00;100253.06;5070006;28;20185;-76
2021/10/07 05:24:50;;;;;;;12.98;9.10;;;;;;;11.83;100.00;100251.94;5071705;28;20627;-75
2021/10/07 05:27:17;;;;;;;15.25;9.25;;;;;;;11.89;100.00;100251.66;5067486;28;20185;-76
2021/10/07 05:29:44;;;;;;;16.15;9.43;;;;;;;12.01;100.00;100254.66;5071731;28;20585;-75
2021/10/07 05:32:11;;;;;;;15.27;8.82;;;;;;;11.92;100.00;100245.22;5056874;28;20209;-75
2021/10/07 05:34:37;;;;;;;13.35;9.23;;;;;;;11.92;100.00;100257.81;5072993;28;20201;-75
2021/10/07 05:37:05;;;;;;;13.75;9.70;;;;;;;11.71;100.00;100259.81;5057775;28;20620;-75
2021/10/07 05:39:32;;;;;;;15.75;9.00;;;;;;;11.51;100.00;100266.22;5063978;28;20203;-76
2021/10/07 05:41:58;;;;;;;11.43;8.63;;;;;;;11.57;100.00;100263.22;5059993;28;20284;-76
2021/10/07 05:44:25;;;;;;;13.48;8.45;;;;;;;11.61;100.00;100262.97;5066549;28;20185;-75
2021/10/07 05:46:52;;;;;;;14.77;11.50;;;;;;;11.70;100.00;100256.25;5053382;28;20197;-76
2021/10/07 05:49:19;;;;;;;11.98;8.10;;;;;;;11.46;100.00;100258.38;5058628;28;20402;-76
2021/10/07 05:51:45;;;;;;;12.90;9.90;;;;;;;11.55;100.00;100260.59;5069009;28;20215;-75
2021/10/07 05:54:13;;;;;;;11.68;9.45;;;;;;;11.68;100.00;100271.63;5080265;28;20306;-76
2021/10/07 05:56:40;;;;;;;11.70;7.80;;;;;;;11.80;100.00;100267.41;5070347;28;20204;-76
2021/10/07 05:59:06;;;;;;;17.02;9.60;;;;;;;11.89;100.00;100266.97;5065575;28;20627;-74
2021/10/07 06:01:33;;;;;;;12.98;10.00;;;;;;;11.76;100.00;100269.41;5058883;28;20284;-76
2021/10/07 06:04:00;;;;;;;12.73;10.10;;;;;;;11.57;100.00;100279.41;5063430;28;20212;-76
2021/10/07 06:06:26;;;;;;;12.50;10.60;;;;;;;11.51;100.00;100280.59;5069999;28;20272;-76
2021/10/07 06:08:53;;;;;;;12.93;9.88;;;;;;;11.53;100.00;100286.75;5073086;28;20199;-76
2021/10/07 06:11:21;;;;;;;15.02;10.93;;;;;;;11.60;100.00;100290.03;5081292;28;20215;-77
2021/10/07 06:13:48;;;;;;;11.77;9.57;;;;;;;11.71;100.00;100286.78;5074263;28;20189;-75
2021/10/07 06:16:16;;;;;;;11.93;10.20;;;;;;;11.58;100.00;100291.97;5076157;28;20193;-77
2021/10/07 06:18:43;;;;;;;16.77;11.23;;;;;;;11.70;100.00;100310.19;5078029;28;20192;-76
2021/10/07 06:21:10;;;;;;;14.43;10.10;;;;;;;11.72;100.00;100307.44;5079900;28;20301;-76
2021/10/07 06:23:39;;;;;;;12.25;10.68;;;;;;;11.72;100.00;100308.28;5085274;28;20185;-76
2021/10/07 06:26:05;;;;;;;17.73;9.77;;;;;;;11.78;100.00;100307.97;5073434;28;20193;-76
2021/10/07 06:28:34;;;;;;;13.43;9.85;;;;;;;11.74;100.00;100311.78;5074824;28;20229;-77
2021/10/07 06:31:00;;;;;;;10.98;8.18;;;;;;;11.87;100.00;100312.94;5083460;28;20195;-77
2021/10/07 06:33:27;;;;;;;12.57;10.60;;;;;;;11.75;100.00;100316.22;5090738;28;20210;-76
2021/10/07 06:35:56;;;;;;;17.38;10.73;;;;;;;11.88;100.00;100316.50;5086493;28;20192;-77
2021/10/07 06:38:23;;;;;;;12.38;10.55;;;;;;;11.95;100.00;100308.97;5072610;28;20279;-76
2021/10/07 06:40:49;;;;;;;18.58;13.10;;;;;;;12.07;100.00;100316.38;5073028;28;20280;-75
2021/10/07 06:43:16;;;;;;;17.63;10.43;;;;;;;11.84;100.00;100328.38;5057575;28;20239;-76
2021/10/07 06:45:44;;;;;;;14.02;10.48;;;;;;;11.97;100.00;100320.53;5071744;28;20540;-76
2021/10/07 06:48:11;;;;;;;17.45;10.10;;;;;;;12.25;100.00;100319.94;5078919;28;20595;-76
2021/10/07 06:50:40;;;;;;;17.25;10.50;;;;;;;12.22;100.00;100334.47;5071317;28;20568;-76
2021/10/07 06:53:07;;;;;;;24.73;11.60;;;;;;;12.40;100.00;100331.75;5073300;28;20209;-77
2021/10/07 06:55:34;;;;;;;20.48;12.68;;;;;;;12.63;100.00;100328.66;5074729;28;20206;-76
2021/10/07 06:58:01;;;;;;;16.98;11.18;;;;;;;12.64;99.81;100330.41;5072354;28;20328;-76
2021/10/07 07:00:28;;;;;;;17.17;10.55;;;;;;;12.76;98.76;100328.00;5075718;28;20277;-77
2021/10/07 07:02:58;;;;;;;16.88;10.30;;;;;;;12.86;98.11;100331.91;5073408;28;20196;-75
2021/10/07 07:05:26;;;;;;;14.52;10.38;;;;;;;13.26;94.30;100335.06;5068807;28;20628;-75
2021/10/07 07:07:53;;;;;;;18.67;10.27;;;;;;;13.23;93.42;100336.13;5070924;28;20223;-75
2021/10/07 07:10:19;;;;;;;23.20;11.40;;;;;;;13.34;92.02;100340.94;5065905;28;20186;-76
2021/10/07 07:12:47;;;;;;;16.15;10.32;;;;;;;13.05;93.86;100335.34;5071619;28;20292;-75
2021/10/07 07:15:14;;;;;;;13.60;10.80;;;;;;;13.11;94.42;100337.72;5068373;28;20193;-75
2021/10/07 07:17:40;;;;;;;11.43;9.88;;;;;;;13.13;93.39;100338.47;5070752;28;20273;-75
2021/10/07 07:20:10;;;;;;;13.45;9.98;;;;;;;13.15;93.58;100343.78;5060074;28;20276;-76
2021/10/07 07:22:38;;;;;;;14.30;10.32;;;;;;;13.36;91.61;100347.13;5069985;28;20198;-76
2021/10/07 07:25:05;;;;;;;13.27;10.70;;;;;;;13.34;91.38;100338.22;5069036;28;20190;-76
2021/10/07 07:27:31;;;;;;;16.27;9.88;;;;;;;13.36;90.66;100344.41;5059745;28;20189;-76
2021/10/07 07:29:58;;;;;;;15.65;10.55;;;;;;;13.22;92.14;100347.03;5058767;28;20229;-77
2021/10/07 07:32:25;;;;;;;14.38;9.68;;;;;;;13.40;90.72;100356.81;5069713;28;20219;-77
2021/10/07 07:34:52;;;;;;;14.38;8.68;;;;;;;13.68;88.08;100350.69;5065192;28;20192;-76
2021/10/07 07:37:20;;;;;;;12.10;7.35;;;;;;;13.77;85.30;100343.84;5051681;28;20203;-76
2021/10/07 07:39:46;;;;;;;11.27;8.20;;;;;;;13.62;85.25;100351.03;5057490;28;20213;-75
2021/10/07 07:42:13;;;;;;;13.82;9.32;;;;;;;13.58;85.62;100352.16;5072265;28;20201;-76
2021/10/07 07:44:42;;;;;;;15.20;11.32;;;;;;;13.64;85.95;100369.88;5074515;28;20281;-76
2021/10/07 07:47:08;;;;;;;17.05;10.63;;;;;;;13.77;85.59;100362.78;5072592;28;20641;-76
2021/10/07 07:49:35;;;;;;;21.42;11.07;;;;;;;13.86;85.47;100358.66;5072619;28;20203;-76
2021/10/07 07:52:02;;;;;;;18.95;10.85;;;;;;;14.07;84.73;100360.06;5072513;28;20207;-75
2021/10/07 07:54:30;;;;;;;17.20;10.93;;;;;;;14.28;84.23;100363.31;5071593;28;20210;-75
2021/10/07 07:56:56;;;;;;;13.68;10.18;;;;;;;14.30;84.32;100358.66;5071314;28;20195;-76
2021/10/07 07:59:23;;;;;;;17.80;11.85;;;;;;;14.42;83.70;100361.59;5071805;28;20297;-75
2021/10/07 08:01:50;;;;;;;13.93;12.20;;;;;;;14.35;83.59;100366.50;5071428;28;20210;-76
2021/10/07 08:04:17;;;;;;;13.23;10.70;;;;;;;14.15;83.69;100359.59;5071156;28;20185;-76
2021/10/07 08:06:44;;;;;;;16.35;10.70;;;;;;;13.85;84.77;100365.91;5070390;28;20243;-77
2021/10/07 08:09:10;;;;;;;15.77;13.20;;;;;;;13.90;85.55;100371.91;5071086;28;20192;-78
2021/10/07 08:11:40;;;;;;;17.05;11.80;;;;;;;13.79;85.72;100381.63;5070724;28;20188;-76
2021/10/07 08:14:07;;;;;;;12.30;9.68;;;;;;;13.55;87.24;100382.13;5071205;28;20222;-77
2021/10/07 08:16:34;;;;;;;13.13;10.30;;;;;;;13.34;88.75;100374.28;5070735;28;20199;-76
2021/10/07 08:19:00;;;;;;;12.48;9.30;;;;;;;13.54;87.86;100383.06;5071313;28;21034;-76
2021/10/07 08:21:28;;;;;;;11.85;9.32;;;;;;;13.67;86.40;100377.81;5071074;28;20183;-77
2021/10/07 08:23:56;;;;;;;12.13;9.00;;;;;;;13.51;87.39;100383.25;5071193;28;21004;-76
2021/10/07 08:26:23;;;;;;;12.40;9.40;;;;;;;13.62;87.37;100378.09;5070495;28;20295;-77
2021/10/07 08:28:51;;;;;;;14.52;10.77;;;;;;;13.69;86.84;100386.72;5071451;28;20364;-78
2021/10/07 08:31:18;;;;;;;11.20;9.40;;;;;;;14.00;85.03;100384.88;5072239;28;20649;-77
2021/10/07 08:33:44;;;;;;;17.75;12.50;;;;;;;14.38;83.10;100386.16;5070258;28;20222;-75
2021/10/07 08:36:11;;;;;;;13.32;10.43;;;;;;;14.37;81.82;100392.53;5067252;28;20218;-76
2021/10/07 08:38:37;;;;;;;11.07;9.75;;;;;;;14.28;81.91;100392.22;5070196;28;20314;-76
2021/10/07 08:41:04;;;;;;;11.77;9.55;;;;;;;14.54;80.59;100388.84;5074081;28;20196;-76
2021/10/07 08:43:30;;;;;;;14.27;10.90;;;;;;;14.73;79.91;100393.97;5071423;28;20194;-76
2021/10/07 08:45:59;;;;;;;11.77;10.18;;;;;;;14.60;79.32;100387.56;5069585;28;20291;-76
2021/10/07 08:48:26;;;;;;;13.02;9.20;;;;;;;14.95;78.46;100396.19;5071452;28;20196;-76
2021/10/07 08:50:52;;;;;;;9.45;7.72;;;;;;;15.20;76.26;100400.91;5074183;28;20239;-76
2021/10/07 08:53:19;;;;;;;12.43;9.27;;;;;;;15.39;74.91;100392.44;5073856;28;21054;-76
2021/10/07 08:55:46;;;;;;;12.23;9.15;;;;;;;15.32;75.50;100401.94;5073484;28;20236;-76
2021/10/07 08:58:13;;;;;;;9.82;8.20;;;;;;;15.59;74.09;100399.28;5071920;28;20224;-76
2021/10/07 09:00:40;;;;;;;10.38;9.27;;;;;;;15.59;73.89;100395.69;5074205;28;20207;-77
2021/10/07 09:03:19;;;;;;;13.00;8.55;;;;;;;15.87;73.34;100394.72;5074688;28;20192;-77
2021/10/07 09:05:46;;;;;;;11.48;8.57;;;;;;;16.24;72.07;100398.53;5073311;28;20188;-76
2021/10/07 09:08:15;;;;;;;11.27;8.38;;;;;;;15.97;72.43;100395.00;5074235;28;20633;-77
2021/10/07 09:10:45;;;;;;;9.48;7.50;;;;;;;15.91;72.14;100390.84;5071806;28;20613;-77
2021/10/07 09:13:15;;;;;;;10.35;7.07;;;;;;;16.00;70.81;100392.94;5067390;28;20657;-77
2021/10/07 09:15:43;;;;;;;8.20;7.40;;;;;;;15.61;72.02;100393.75;5073605;28;20727;-76
2021/10/07 09:18:11;;;;;;;8.90;6.70;;;;;;;15.29;73.23;100393.16;5073813;28;20196;-76
2021/10/07 09:20:41;;;;;;;12.13;10.88;;;;;;;16.03;71.40;100398.16;5071124;28;20909;-75
2021/10/07 09:23:09;;;;;;;12.55;7.90;;;;;;;16.46;69.91;100397.91;5074328;28;20199;-77
2021/10/07 09:26:01;;;;;;;6.95;5.97;;;;;;;16.16;70.01;100398.19;5074239;28;20616;-76
2021/10/07 09:28:32;;;;;;;6.72;5.97;;;;;;;16.25;69.93;100396.69;5072828;28;20718;-76
2021/10/07 09:31:00;;;;;;;8.15;6.18;;;;;;;15.84;71.28;100392.22;5073120;28;20197;-76
2021/10/07 09:33:29;;;;;;;7.60;5.93;;;;;;;15.67;71.53;100397.88;5074041;28;20227;-77
2021/10/07 09:36:15;;;;;;;8.88;5.70;;;;;;;15.34;72.40;100394.59;5072239;28;20211;-77
2021/10/07 09:38:42;;;;;;;8.68;7.15;;;;;;;15.34;73.27;100399.16;5072884;28;20206;-77
2021/10/07 09:41:10;;;;;;;8.32;5.78;;;;;;;15.64;72.42;100391.69;5073204;28;20271;-77
2021/10/07 09:43:45;;;;;;;7.13;6.43;;;;;;;15.79;71.84;100388.97;5073470;28;20193;-77
2021/10/07 09:46:12;;;;;;;11.48;6.30;;;;;;;15.63;72.24;100391.81;5073883;28;20267;-77
2021/10/07 09:48:39;;;;;;;9.98;6.90;;;;;;;16.35;70.74;100389.66;5066190;28;20280;-75
2021/10/07 09:51:14;;;;;;;7.40;5.38;;;;;;;16.77;68.20;100390.28;5060573;28;20197;-76
2021/10/07 09:53:45;;;;;;;9.02;5.60;;;;;;;16.79;67.86;100387.47;5073090;28;20216;-76
2021/10/07 09:56:25;;;;;;;6.10;5.20;;;;;;;17.17;66.50;100394.75;5059880;28;20192;-76
2021/10/07 09:58:52;;;;;;;6.88;6.15;;;;;;;17.23;65.74;100383.41;5071644;28;20192;-75
2021/10/07 10:01:19;;;;;;;7.53;6.40;;;;;;;16.92;65.96;100388.38;5072162;28;20283;-77
2021/10/07 10:03:45;;;;;;;5.63;4.90;;;;;;;17.28;63.77;100387.53;5073059;28;20223;-77
2021/10/07 10:06:13;;;;;;;4.53;4.00;;;;;;;17.65;61.18;100382.06;5072170;28;20284;-76
2021/10/07 10:08:40;;;;;;;6.45;3.83;;;;;;;17.43;61.14;100379.22;5072542;28;20284;-75
2021/10/07 10:11:07;;;;;;;4.85;4.38;;;;;;;17.60;60.07;100386.13;5070757;28;20197;-76
2021/10/07 10:13:34;;;;;;;6.22;4.25;;;;;;;16.99;61.90;100375.19;5072186;28;20738;-77
2021/10/07 10:16:01;;;;;;;6.32;4.97;;;;;;;17.34;60.64;100372.59;5071949;28;20185;-75
2021/10/07 10:18:28;;;;;;;5.72;3.70;;;;;;;17.48;60.39;100375.19;5069340;28;20195;-76
2021/10/07 10:20:56;;;;;;;7.07;5.13;;;;;;;17.77;59.54;100376.69;5073457;28;20197;-77
2021/10/07 10:23:26;;;;;;;6.82;4.82;;;;;;;17.51;60.41;100384.97;5073789;28;20191;-77
2021/10/07 10:25:57;;;;;;;6.68;4.80;;;;;;;16.92;62.30;100387.50;5069306;28;20206;-76
2021/10/07 10:28:47;;;;;;;6.47;4.43;;;;;;;17.28;61.27;100379.38;5073050;28;20240;-78
2021/10/07 10:31:17;;;;;;;5.05;4.10;;;;;;;17.18;60.97;100378.28;5063878;28;20588;-77
2021/10/07 10:33:48;;;;;;;5.72;4.38;;;;;;;17.56;60.01;100371.88;5072990;28;20615;-77
2021/10/07 10:36:32;;;;;;;6.05;4.15;;;;;;;17.48;59.84;100379.75;5071913;28;20197;-77
2021/10/07 10:39:08;;;;;;;7.30;4.32;;;;;;;17.38;59.55;100376.81;5066765;28;20549;-76
2021/10/07 10:41:46;;;;;;;4.80;4.20;;;;;;;17.44;59.90;100378.25;5069477;28;20200;-77
2021/10/07 10:44:32;;;;;;;7.05;5.15;;;;;;;17.46;59.91;100384.44;5061963;28;20185;-76
2021/10/07 10:47:00;;;;;;;10.45;5.55;;;;;;;17.04;61.95;100389.31;5071707;28;20196;-76
2021/10/07 10:49:37;;;;;;;5.80;5.00;;;;;;;16.40;63.11;100394.75;5070009;28;20244;-75
2021/10/07 10:52:12;;;;;;;5.70;5.20;;;;;;;16.43;63.16;100387.25;5070977;28;20264;-77
2021/10/07 10:54:44;;;;;;;5.38;4.78;;;;;;;16.41;63.32;100388.34;5070731;28;20725;-75
2021/10/07 10:57:26;;;;;;;5.53;5.03;;;;;;;16.23;64.46;100393.19;5071730;28;20273;-75
2021/10/07 11:00:07;;;;;;;6.90;5.95;;;;;;;16.24;63.72;100390.38;5067067;28;20577;-76
2021/10/07 11:02:34;;;;;;;7.07;5.05;;;;;;;15.92;64.71;100391.69;5084136;28;20613;-75
2021/10/07 11:05:15;;;;;;;6.90;6.25;;;;;;;16.07;65.00;100392.50;5071251;28;20304;-75
2021/10/07 11:07:42;;;;;;;7.30;6.10;;;;;;;16.64;62.50;100393.03;5073030;28;20224;-75
2021/10/07 11:10:16;;;;;;;6.15;5.55;;;;;;;17.12;59.89;100394.19;5071091;28;20636;-76
2021/10/07 11:12:49;;;;;;;4.57;4.18;;;;;;;17.34;58.83;100385.34;5072141;28;20184;-76
2021/10/07 11:15:17;;;;;;;4.82;4.32;;;;;;;16.94;59.45;100382.84;5065943;28;20220;-76
2021/10/07 11:17:45;;;;;;;7.90;4.50;;;;;;;17.19;59.32;100380.06;5071826;28;20219;-76